sensor_id;sensor_type;location;lat;lon;timestamp;P1;durP1;ratioP1;P2;durP2;ratioP2
23642;SDS011;11998;55.788;37.572;2023-03-19T00:00:21;6.80;;;4.27;;
23642;SDS011;11998;55.788;37.572;2023-03-19T00:01:21;5.57;;;4.00;;
23642;SDS011;11998;55.788;37.572;2023-03-19T00:02:21;5.87;;;3.60;;
23642;SDS011;11998;55.788;37.572;2023-03-19T00:03:22;8.23;;;4.10;;
23642;SDS011;11998;55.788;37.572;2023-03-19T00:04:23;6.77;;;4.37;;
23642;SDS011;11998;55.788;37.572;2023-03-19T00:05:23;10.87;;;3.57;;
23642;SDS011;11998;55.788;37.572;2023-03-19T00:06:23;5.97;;;3.50;;
23642;SDS011;11998;55.788;37.572;2023-03-19T00:07:24;7.80;;;3.90;;
23642;SDS011;11998;55.788;37.572;2023-03-19T00:08:25;4.80;;;3.43;;
23642;SDS011;11998;55.788;37.572;2023-03-19T00:09:25;10.80;;;3.93;;
23642;SDS011;11998;55.788;37.572;2023-03-19T00:10:26;5.73;;;3.60;;
23642;SDS011;11998;55.788;37.572;2023-03-19T00:11:26;7.23;;;3.60;;
23642;SDS011;11998;55.788;37.572;2023-03-19T00:12:27;6.43;;;3.53;;
23642;SDS011;11998;55.788;37.572;2023-03-19T00:13:27;6.47;;;3.60;;
23642;SDS011;11998;55.788;37.572;2023-03-19T00:14:27;6.33;;;3.77;;
23642;SDS011;11998;55.788;37.572;2023-03-19T00:15:28;7.53;;;3.67;;
23642;SDS011;11998;55.788;37.572;2023-03-19T00:16:28;5.37;;;3.27;;
23642;SDS011;11998;55.788;37.572;2023-03-19T00:17:29;4.53;;;3.17;;
23642;SDS011;11998;55.788;37.572;2023-03-19T00:18:29;6.37;;;3.37;;
23642;SDS011;11998;55.788;37.572;2023-03-19T00:19:30;9.67;;;3.30;;
23642;SDS011;11998;55.788;37.572;2023-03-19T00:20:32;4.93;;;3.40;;
23642;SDS011;11998;55.788;37.572;2023-03-19T00:21:33;5.07;;;3.47;;
23642;SDS011;11998;55.788;37.572;2023-03-19T00:22:33;4.40;;;3.10;;
23642;SDS011;11998;55.788;37.572;2023-03-19T00:23:34;6.33;;;3.10;;
23642;SDS011;11998;55.788;37.572;2023-03-19T00:24:35;5.95;;;3.17;;
23642;SDS011;11998;55.788;37.572;2023-03-19T00:25:35;5.77;;;3.33;;
23642;SDS011;11998;55.788;37.572;2023-03-19T00:26:36;4.87;;;3.30;;
23642;SDS011;11998;55.788;37.572;2023-03-19T00:27:36;5.37;;;3.20;;
23642;SDS011;11998;55.788;37.572;2023-03-19T00:28:37;5.93;;;3.40;;
23642;SDS011;11998;55.788;37.572;2023-03-19T00:29:37;7.17;;;3.60;;
23642;SDS011;11998;55.788;37.572;2023-03-19T00:30:38;7.80;;;3.50;;
23642;SDS011;11998;55.788;37.572;2023-03-19T00:31:38;6.00;;;3.00;;
23642;SDS011;11998;55.788;37.572;2023-03-19T00:32:39;5.70;;;3.58;;
23642;SDS011;11998;55.788;37.572;2023-03-19T00:33:40;5.43;;;3.50;;
23642;SDS011;11998;55.788;37.572;2023-03-19T00:34:40;5.93;;;3.20;;
23642;SDS011;11998;55.788;37.572;2023-03-19T00:35:41;5.15;;;2.80;;
23642;SDS011;11998;55.788;37.572;2023-03-19T00:36:42;5.13;;;3.07;;
23642;SDS011;11998;55.788;37.572;2023-03-19T00:37:42;5.03;;;3.57;;
23642;SDS011;11998;55.788;37.572;2023-03-19T00:38:43;5.30;;;3.23;;
23642;SDS011;11998;55.788;37.572;2023-03-19T00:39:43;5.03;;;3.13;;
23642;SDS011;11998;55.788;37.572;2023-03-19T00:40:44;7.87;;;3.07;;
23642;SDS011;11998;55.788;37.572;2023-03-19T00:41:44;4.60;;;2.93;;
23642;SDS011;11998;55.788;37.572;2023-03-19T00:42:49;3.67;;;2.60;;
23642;SDS011;11998;55.788;37.572;2023-03-19T00:43:53;4.83;;;3.23;;
23642;SDS011;11998;55.788;37.572;2023-03-19T00:44:54;5.30;;;3.20;;
23642;SDS011;11998;55.788;37.572;2023-03-19T00:45:55;5.10;;;2.93;;
23642;SDS011;11998;55.788;37.572;2023-03-19T00:46:55;4.87;;;2.83;;
23642;SDS011;11998;55.788;37.572;2023-03-19T00:47:55;6.30;;;3.00;;
23642;SDS011;11998;55.788;37.572;2023-03-19T00:48:56;4.45;;;3.20;;
23642;SDS011;11998;55.788;37.572;2023-03-19T00:49:57;4.97;;;3.22;;
23642;SDS011;11998;55.788;37.572;2023-03-19T00:51:02;5.67;;;2.70;;
23642;SDS011;11998;55.788;37.572;2023-03-19T00:52:02;6.65;;;3.00;;
23642;SDS011;11998;55.788;37.572;2023-03-19T00:53:03;4.80;;;2.90;;
23642;SDS011;11998;55.788;37.572;2023-03-19T00:54:03;6.43;;;3.20;;
23642;SDS011;11998;55.788;37.572;2023-03-19T00:55:03;4.97;;;2.93;;
23642;SDS011;11998;55.788;37.572;2023-03-19T00:56:04;4.37;;;3.10;;
23642;SDS011;11998;55.788;37.572;2023-03-19T00:57:05;7.65;;;2.78;;
23642;SDS011;11998;55.788;37.572;2023-03-19T00:58:06;5.07;;;2.63;;
23642;SDS011;11998;55.788;37.572;2023-03-19T00:59:06;7.27;;;2.67;;
23642;SDS011;11998;55.788;37.572;2023-03-19T01:00:07;4.07;;;2.60;;
23642;SDS011;11998;55.788;37.572;2023-03-19T01:01:08;4.07;;;2.87;;
23642;SDS011;11998;55.788;37.572;2023-03-19T01:02:09;4.03;;;2.80;;
23642;SDS011;11998;55.788;37.572;2023-03-19T01:03:09;6.73;;;3.07;;
23642;SDS011;11998;55.788;37.572;2023-03-19T01:04:10;4.70;;;2.90;;
23642;SDS011;11998;55.788;37.572;2023-03-19T01:05:10;5.00;;;2.80;;
23642;SDS011;11998;55.788;37.572;2023-03-19T01:06:11;3.33;;;2.50;;
23642;SDS011;11998;55.788;37.572;2023-03-19T01:07:12;7.63;;;2.90;;
23642;SDS011;11998;55.788;37.572;2023-03-19T01:08:12;3.97;;;2.97;;
23642;SDS011;11998;55.788;37.572;2023-03-19T01:09:13;5.40;;;2.70;;
23642;SDS011;11998;55.788;37.572;2023-03-19T01:10:16;6.50;;;2.87;;
23642;SDS011;11998;55.788;37.572;2023-03-19T01:11:16;4.63;;;2.85;;
23642;SDS011;11998;55.788;37.572;2023-03-19T01:12:17;4.22;;;2.47;;
23642;SDS011;11998;55.788;37.572;2023-03-19T01:13:18;3.80;;;2.63;;
23642;SDS011;11998;55.788;37.572;2023-03-19T01:14:19;4.83;;;2.50;;
23642;SDS011;11998;55.788;37.572;2023-03-19T01:15:20;5.20;;;2.90;;
23642;SDS011;11998;55.788;37.572;2023-03-19T01:16:20;4.10;;;2.73;;
23642;SDS011;11998;55.788;37.572;2023-03-19T01:17:20;3.43;;;2.50;;
23642;SDS011;11998;55.788;37.572;2023-03-19T01:18:21;3.97;;;3.20;;
23642;SDS011;11998;55.788;37.572;2023-03-19T01:19:21;8.00;;;3.13;;
23642;SDS011;11998;55.788;37.572;2023-03-19T01:20:22;3.97;;;2.90;;
23642;SDS011;11998;55.788;37.572;2023-03-19T01:21:23;7.15;;;3.08;;
23642;SDS011;11998;55.788;37.572;2023-03-19T01:22:23;4.10;;;2.90;;
23642;SDS011;11998;55.788;37.572;2023-03-19T01:23:25;3.80;;;2.60;;
23642;SDS011;11998;55.788;37.572;2023-03-19T01:24:28;5.23;;;3.00;;
23642;SDS011;11998;55.788;37.572;2023-03-19T01:25:28;5.95;;;3.40;;
23642;SDS011;11998;55.788;37.572;2023-03-19T01:26:29;5.00;;;3.23;;
23642;SDS011;11998;55.788;37.572;2023-03-19T01:27:29;6.37;;;3.00;;
23642;SDS011;11998;55.788;37.572;2023-03-19T01:28:30;5.20;;;2.63;;
23642;SDS011;11998;55.788;37.572;2023-03-19T01:29:30;4.77;;;2.70;;
23642;SDS011;11998;55.788;37.572;2023-03-19T01:30:31;6.13;;;3.47;;
23642;SDS011;11998;55.788;37.572;2023-03-19T01:31:31;3.30;;;2.80;;
23642;SDS011;11998;55.788;37.572;2023-03-19T01:32:31;5.73;;;3.57;;
23642;SDS011;11998;55.788;37.572;2023-03-19T01:33:32;5.60;;;3.03;;
23642;SDS011;11998;55.788;37.572;2023-03-19T01:34:32;4.13;;;3.07;;
23642;SDS011;11998;55.788;37.572;2023-03-19T01:35:33;6.30;;;2.90;;
23642;SDS011;11998;55.788;37.572;2023-03-19T01:36:33;3.97;;;2.60;;
23642;SDS011;11998;55.788;37.572;2023-03-19T01:37:34;4.07;;;3.00;;
23642;SDS011;11998;55.788;37.572;2023-03-19T01:38:34;5.87;;;2.80;;
23642;SDS011;11998;55.788;37.572;2023-03-19T01:39:35;8.67;;;3.10;;
23642;SDS011;11998;55.788;37.572;2023-03-19T01:40:35;4.17;;;3.17;;
23642;SDS011;11998;55.788;37.572;2023-03-19T01:41:36;4.70;;;3.10;;
23642;SDS011;11998;55.788;37.572;2023-03-19T01:42:56;4.40;;;3.03;;
23642;SDS011;11998;55.788;37.572;2023-03-19T01:43:57;5.53;;;2.88;;
23642;SDS011;11998;55.788;37.572;2023-03-19T01:44:57;6.07;;;3.30;;
23642;SDS011;11998;55.788;37.572;2023-03-19T01:46:13;7.10;;;3.27;;
23642;SDS011;11998;55.788;37.572;2023-03-19T01:47:15;6.43;;;2.92;;
23642;SDS011;11998;55.788;37.572;2023-03-19T01:48:33;5.60;;;3.30;;
23642;SDS011;11998;55.788;37.572;2023-03-19T01:49:36;5.63;;;3.10;;
23642;SDS011;11998;55.788;37.572;2023-03-19T01:50:40;4.83;;;3.13;;
23642;SDS011;11998;55.788;37.572;2023-03-19T01:51:42;4.55;;;3.20;;
23642;SDS011;11998;55.788;37.572;2023-03-19T01:52:44;5.85;;;3.50;;
23642;SDS011;11998;55.788;37.572;2023-03-19T01:53:46;5.43;;;2.93;;
23642;SDS011;11998;55.788;37.572;2023-03-19T01:54:46;8.32;;;3.35;;
23642;SDS011;11998;55.788;37.572;2023-03-19T01:55:47;5.40;;;3.10;;
23642;SDS011;11998;55.788;37.572;2023-03-19T01:56:50;7.53;;;3.37;;
23642;SDS011;11998;55.788;37.572;2023-03-19T01:57:52;4.68;;;3.05;;
23642;SDS011;11998;55.788;37.572;2023-03-19T01:58:54;5.87;;;3.53;;
23642;SDS011;11998;55.788;37.572;2023-03-19T01:59:56;5.50;;;3.22;;
23642;SDS011;11998;55.788;37.572;2023-03-19T02:00:59;8.77;;;3.53;;
23642;SDS011;11998;55.788;37.572;2023-03-19T02:02:01;5.50;;;3.30;;
23642;SDS011;11998;55.788;37.572;2023-03-19T02:03:02;5.95;;;3.25;;
23642;SDS011;11998;55.788;37.572;2023-03-19T02:04:02;4.87;;;3.40;;
23642;SDS011;11998;55.788;37.572;2023-03-19T02:05:11;5.10;;;3.53;;
23642;SDS011;11998;55.788;37.572;2023-03-19T02:06:12;6.75;;;3.40;;
23642;SDS011;11998;55.788;37.572;2023-03-19T02:07:12;7.43;;;3.57;;
23642;SDS011;11998;55.788;37.572;2023-03-19T02:08:14;3.97;;;3.00;;
23642;SDS011;11998;55.788;37.572;2023-03-19T02:09:15;5.20;;;3.60;;
23642;SDS011;11998;55.788;37.572;2023-03-19T02:10:17;6.82;;;3.95;;
23642;SDS011;11998;55.788;37.572;2023-03-19T02:11:18;6.07;;;3.38;;
23642;SDS011;11998;55.788;37.572;2023-03-19T02:12:19;6.33;;;3.77;;
23642;SDS011;11998;55.788;37.572;2023-03-19T02:13:19;6.93;;;3.33;;
23642;SDS011;11998;55.788;37.572;2023-03-19T02:14:20;5.03;;;3.50;;
23642;SDS011;11998;55.788;37.572;2023-03-19T02:15:21;10.40;;;3.57;;
23642;SDS011;11998;55.788;37.572;2023-03-19T02:16:21;8.23;;;3.77;;
23642;SDS011;11998;55.788;37.572;2023-03-19T02:17:21;8.50;;;4.00;;
23642;SDS011;11998;55.788;37.572;2023-03-19T02:18:22;5.67;;;3.53;;
23642;SDS011;11998;55.788;37.572;2023-03-19T02:19:27;8.50;;;3.92;;
23642;SDS011;11998;55.788;37.572;2023-03-19T02:20:34;5.72;;;3.50;;
23642;SDS011;11998;55.788;37.572;2023-03-19T02:21:36;7.32;;;3.88;;
23642;SDS011;11998;55.788;37.572;2023-03-19T02:22:37;5.73;;;3.37;;
23642;SDS011;11998;55.788;37.572;2023-03-19T02:25:01;7.30;;;3.95;;
23642;SDS011;11998;55.788;37.572;2023-03-19T02:26:16;5.80;;;3.53;;
23642;SDS011;11998;55.788;37.572;2023-03-19T02:27:17;6.38;;;2.95;;
23642;SDS011;11998;55.788;37.572;2023-03-19T02:28:18;5.93;;;3.97;;
23642;SDS011;11998;55.788;37.572;2023-03-19T02:29:19;10.40;;;4.40;;
23642;SDS011;11998;55.788;37.572;2023-03-19T02:30:24;5.80;;;3.90;;
23642;SDS011;11998;55.788;37.572;2023-03-19T02:31:25;7.78;;;3.53;;
23642;SDS011;11998;55.788;37.572;2023-03-19T02:32:27;6.63;;;3.67;;
23642;SDS011;11998;55.788;37.572;2023-03-19T02:33:27;6.27;;;3.33;;
23642;SDS011;11998;55.788;37.572;2023-03-19T02:34:35;14.03;;;3.90;;
23642;SDS011;11998;55.788;37.572;2023-03-19T02:35:35;9.15;;;4.47;;
23642;SDS011;11998;55.788;37.572;2023-03-19T02:36:38;12.77;;;4.80;;
23642;SDS011;11998;55.788;37.572;2023-03-19T02:37:41;8.27;;;4.20;;
23642;SDS011;11998;55.788;37.572;2023-03-19T02:38:42;8.75;;;4.22;;
23642;SDS011;11998;55.788;37.572;2023-03-19T02:40:48;6.90;;;3.97;;
23642;SDS011;11998;55.788;37.572;2023-03-19T02:41:50;12.73;;;5.88;;
23642;SDS011;11998;55.788;37.572;2023-03-19T02:42:51;9.40;;;4.30;;
23642;SDS011;11998;55.788;37.572;2023-03-19T02:43:52;7.00;;;4.13;;
23642;SDS011;11998;55.788;37.572;2023-03-19T02:44:53;10.37;;;5.33;;
23642;SDS011;11998;55.788;37.572;2023-03-19T02:45:53;5.63;;;3.80;;
23642;SDS011;11998;55.788;37.572;2023-03-19T02:46:53;7.50;;;3.80;;
23642;SDS011;11998;55.788;37.572;2023-03-19T02:47:54;4.87;;;3.70;;
23642;SDS011;11998;55.788;37.572;2023-03-19T02:48:54;6.37;;;3.90;;
23642;SDS011;11998;55.788;37.572;2023-03-19T02:49:55;8.13;;;4.03;;
23642;SDS011;11998;55.788;37.572;2023-03-19T02:50:55;9.30;;;4.33;;
23642;SDS011;11998;55.788;37.572;2023-03-19T02:51:55;8.27;;;3.97;;
23642;SDS011;11998;55.788;37.572;2023-03-19T02:52:56;6.10;;;3.80;;
23642;SDS011;11998;55.788;37.572;2023-03-19T02:53:56;8.10;;;3.90;;
23642;SDS011;11998;55.788;37.572;2023-03-19T02:54:57;7.30;;;3.60;;
23642;SDS011;11998;55.788;37.572;2023-03-19T02:55:57;5.93;;;3.63;;
23642;SDS011;11998;55.788;37.572;2023-03-19T02:56:58;8.30;;;3.93;;
23642;SDS011;11998;55.788;37.572;2023-03-19T02:57:58;7.47;;;3.40;;
23642;SDS011;11998;55.788;37.572;2023-03-19T02:58:58;8.77;;;3.93;;
23642;SDS011;11998;55.788;37.572;2023-03-19T02:59:59;9.57;;;4.13;;
23642;SDS011;11998;55.788;37.572;2023-03-19T03:00:59;8.40;;;4.20;;
23642;SDS011;11998;55.788;37.572;2023-03-19T03:02:00;8.80;;;3.60;;
23642;SDS011;11998;55.788;37.572;2023-03-19T03:03:00;7.47;;;4.17;;
23642;SDS011;11998;55.788;37.572;2023-03-19T03:04:01;9.97;;;3.53;;
23642;SDS011;11998;55.788;37.572;2023-03-19T03:05:01;6.43;;;4.00;;
23642;SDS011;11998;55.788;37.572;2023-03-19T03:06:02;5.70;;;3.70;;
23642;SDS011;11998;55.788;37.572;2023-03-19T03:07:03;8.07;;;4.37;;
23642;SDS011;11998;55.788;37.572;2023-03-19T03:08:03;6.90;;;3.87;;
23642;SDS011;11998;55.788;37.572;2023-03-19T03:09:04;7.57;;;3.80;;
23642;SDS011;11998;55.788;37.572;2023-03-19T03:10:05;8.53;;;4.23;;
23642;SDS011;11998;55.788;37.572;2023-03-19T03:11:05;6.93;;;4.22;;
23642;SDS011;11998;55.788;37.572;2023-03-19T03:12:06;8.77;;;4.60;;
23642;SDS011;11998;55.788;37.572;2023-03-19T03:13:07;7.23;;;3.73;;
23642;SDS011;11998;55.788;37.572;2023-03-19T03:14:08;9.03;;;4.57;;
23642;SDS011;11998;55.788;37.572;2023-03-19T03:15:09;5.80;;;3.43;;
23642;SDS011;11998;55.788;37.572;2023-03-19T03:16:09;7.37;;;4.53;;
23642;SDS011;11998;55.788;37.572;2023-03-19T03:17:09;6.93;;;3.83;;
23642;SDS011;11998;55.788;37.572;2023-03-19T03:18:10;6.10;;;3.87;;
23642;SDS011;11998;55.788;37.572;2023-03-19T03:19:10;6.33;;;4.10;;
23642;SDS011;11998;55.788;37.572;2023-03-19T03:20:11;9.17;;;4.40;;
23642;SDS011;11998;55.788;37.572;2023-03-19T03:21:12;11.75;;;4.63;;
23642;SDS011;11998;55.788;37.572;2023-03-19T03:22:13;8.60;;;4.63;;
23642;SDS011;11998;55.788;37.572;2023-03-19T03:23:14;6.28;;;4.47;;
23642;SDS011;11998;55.788;37.572;2023-03-19T03:24:14;8.00;;;4.20;;
23642;SDS011;11998;55.788;37.572;2023-03-19T03:25:14;10.13;;;5.00;;
23642;SDS011;11998;55.788;37.572;2023-03-19T03:26:15;9.63;;;4.67;;
23642;SDS011;11998;55.788;37.572;2023-03-19T03:27:15;7.97;;;4.37;;
23642;SDS011;11998;55.788;37.572;2023-03-19T03:28:16;8.77;;;4.70;;
23642;SDS011;11998;55.788;37.572;2023-03-19T03:29:17;9.17;;;4.80;;
23642;SDS011;11998;55.788;37.572;2023-03-19T03:30:17;7.30;;;5.00;;
23642;SDS011;11998;55.788;37.572;2023-03-19T03:31:17;8.77;;;4.70;;
23642;SDS011;11998;55.788;37.572;2023-03-19T03:32:18;11.90;;;4.90;;
23642;SDS011;11998;55.788;37.572;2023-03-19T03:33:18;8.73;;;4.50;;
23642;SDS011;11998;55.788;37.572;2023-03-19T03:34:18;9.53;;;5.07;;
23642;SDS011;11998;55.788;37.572;2023-03-19T03:35:19;9.23;;;4.77;;
23642;SDS011;11998;55.788;37.572;2023-03-19T03:36:22;6.93;;;4.35;;
23642;SDS011;11998;55.788;37.572;2023-03-19T03:37:22;7.50;;;4.70;;
23642;SDS011;11998;55.788;37.572;2023-03-19T03:38:23;7.37;;;4.70;;
23642;SDS011;11998;55.788;37.572;2023-03-19T03:39:23;10.57;;;4.93;;
23642;SDS011;11998;55.788;37.572;2023-03-19T03:40:23;8.63;;;4.83;;
23642;SDS011;11998;55.788;37.572;2023-03-19T03:41:24;6.63;;;4.40;;
23642;SDS011;11998;55.788;37.572;2023-03-19T03:42:25;8.23;;;4.40;;
23642;SDS011;11998;55.788;37.572;2023-03-19T03:43:25;8.27;;;5.03;;
23642;SDS011;11998;55.788;37.572;2023-03-19T03:44:25;5.77;;;4.03;;
23642;SDS011;11998;55.788;37.572;2023-03-19T03:45:26;10.50;;;4.75;;
23642;SDS011;11998;55.788;37.572;2023-03-19T03:46:27;9.53;;;5.10;;
23642;SDS011;11998;55.788;37.572;2023-03-19T03:47:27;8.73;;;3.97;;
23642;SDS011;11998;55.788;37.572;2023-03-19T03:48:28;7.83;;;4.57;;
23642;SDS011;11998;55.788;37.572;2023-03-19T03:49:28;9.33;;;4.40;;
23642;SDS011;11998;55.788;37.572;2023-03-19T03:50:28;7.53;;;4.20;;
23642;SDS011;11998;55.788;37.572;2023-03-19T03:51:29;10.03;;;4.70;;
23642;SDS011;11998;55.788;37.572;2023-03-19T03:52:29;6.47;;;4.03;;
23642;SDS011;11998;55.788;37.572;2023-03-19T03:53:30;5.10;;;3.85;;
23642;SDS011;11998;55.788;37.572;2023-03-19T03:54:31;4.70;;;3.53;;
23642;SDS011;11998;55.788;37.572;2023-03-19T03:55:31;7.23;;;4.07;;
23642;SDS011;11998;55.788;37.572;2023-03-19T03:56:32;7.53;;;3.70;;
23642;SDS011;11998;55.788;37.572;2023-03-19T03:57:33;7.57;;;4.28;;
23642;SDS011;11998;55.788;37.572;2023-03-19T03:58:33;6.27;;;3.80;;
23642;SDS011;11998;55.788;37.572;2023-03-19T03:59:34;5.90;;;4.37;;
23642;SDS011;11998;55.788;37.572;2023-03-19T04:00:35;5.13;;;3.90;;
23642;SDS011;11998;55.788;37.572;2023-03-19T04:01:35;7.37;;;3.93;;
23642;SDS011;11998;55.788;37.572;2023-03-19T04:02:36;7.87;;;3.83;;
23642;SDS011;11998;55.788;37.572;2023-03-19T04:03:36;6.67;;;4.00;;
23642;SDS011;11998;55.788;37.572;2023-03-19T04:04:36;5.27;;;3.93;;
23642;SDS011;11998;55.788;37.572;2023-03-19T04:05:37;6.43;;;3.60;;
23642;SDS011;11998;55.788;37.572;2023-03-19T04:06:37;6.77;;;3.90;;
23642;SDS011;11998;55.788;37.572;2023-03-19T04:07:37;5.37;;;4.00;;
23642;SDS011;11998;55.788;37.572;2023-03-19T04:08:38;5.73;;;3.70;;
23642;SDS011;11998;55.788;37.572;2023-03-19T04:09:39;5.77;;;4.30;;
23642;SDS011;11998;55.788;37.572;2023-03-19T04:10:39;4.73;;;3.90;;
23642;SDS011;11998;55.788;37.572;2023-03-19T04:11:41;4.68;;;3.42;;
23642;SDS011;11998;55.788;37.572;2023-03-19T04:12:42;6.13;;;3.73;;
23642;SDS011;11998;55.788;37.572;2023-03-19T04:13:42;6.30;;;3.80;;
23642;SDS011;11998;55.788;37.572;2023-03-19T04:14:42;7.67;;;3.63;;
23642;SDS011;11998;55.788;37.572;2023-03-19T04:15:43;4.70;;;3.70;;
23642;SDS011;11998;55.788;37.572;2023-03-19T04:16:44;6.40;;;3.40;;
23642;SDS011;11998;55.788;37.572;2023-03-19T04:17:44;5.03;;;4.00;;
23642;SDS011;11998;55.788;37.572;2023-03-19T04:18:45;9.50;;;4.00;;
23642;SDS011;11998;55.788;37.572;2023-03-19T04:19:45;6.17;;;3.60;;
23642;SDS011;11998;55.788;37.572;2023-03-19T04:20:46;7.00;;;3.37;;
23642;SDS011;11998;55.788;37.572;2023-03-19T04:21:46;4.83;;;4.00;;
23642;SDS011;11998;55.788;37.572;2023-03-19T04:22:47;5.70;;;3.97;;
23642;SDS011;11998;55.788;37.572;2023-03-19T04:23:48;5.55;;;3.88;;
23642;SDS011;11998;55.788;37.572;2023-03-19T04:24:48;7.77;;;4.27;;
23642;SDS011;11998;55.788;37.572;2023-03-19T04:25:48;5.87;;;3.93;;
23642;SDS011;11998;55.788;37.572;2023-03-19T04:26:49;7.37;;;4.20;;
23642;SDS011;11998;55.788;37.572;2023-03-19T04:27:50;7.20;;;4.57;;
23642;SDS011;11998;55.788;37.572;2023-03-19T04:28:51;7.05;;;4.32;;
23642;SDS011;11998;55.788;37.572;2023-03-19T04:29:51;7.73;;;4.27;;
23642;SDS011;11998;55.788;37.572;2023-03-19T04:30:52;6.03;;;3.83;;
23642;SDS011;11998;55.788;37.572;2023-03-19T04:31:52;6.73;;;3.87;;
23642;SDS011;11998;55.788;37.572;2023-03-19T04:32:52;9.23;;;4.53;;
23642;SDS011;11998;55.788;37.572;2023-03-19T04:33:53;6.47;;;4.33;;
23642;SDS011;11998;55.788;37.572;2023-03-19T04:34:53;5.90;;;4.20;;
23642;SDS011;11998;55.788;37.572;2023-03-19T04:35:54;8.27;;;4.57;;
23642;SDS011;11998;55.788;37.572;2023-03-19T04:36:55;8.18;;;4.97;;
23642;SDS011;11998;55.788;37.572;2023-03-19T04:37:55;7.67;;;4.63;;
23642;SDS011;11998;55.788;37.572;2023-03-19T04:38:55;11.27;;;4.60;;
23642;SDS011;11998;55.788;37.572;2023-03-19T04:39:56;9.07;;;5.17;;
23642;SDS011;11998;55.788;37.572;2023-03-19T04:40:56;8.67;;;5.07;;
23642;SDS011;11998;55.788;37.572;2023-03-19T04:41:57;14.00;;;5.67;;
23642;SDS011;11998;55.788;37.572;2023-03-19T04:42:57;9.17;;;4.77;;
23642;SDS011;11998;55.788;37.572;2023-03-19T04:43:57;11.70;;;5.50;;
23642;SDS011;11998;55.788;37.572;2023-03-19T04:44:58;10.60;;;6.20;;
23642;SDS011;11998;55.788;37.572;2023-03-19T04:45:59;9.00;;;5.50;;
23642;SDS011;11998;55.788;37.572;2023-03-19T04:46:59;11.87;;;6.57;;
23642;SDS011;11998;55.788;37.572;2023-03-19T04:48:00;11.30;;;6.03;;
23642;SDS011;11998;55.788;37.572;2023-03-19T04:49:00;11.43;;;7.07;;
23642;SDS011;11998;55.788;37.572;2023-03-19T04:50:01;13.80;;;7.17;;
23642;SDS011;11998;55.788;37.572;2023-03-19T04:51:01;14.00;;;7.23;;
23642;SDS011;11998;55.788;37.572;2023-03-19T04:52:03;11.83;;;7.83;;
23642;SDS011;11998;55.788;37.572;2023-03-19T04:53:03;15.83;;;7.57;;
23642;SDS011;11998;55.788;37.572;2023-03-19T04:54:04;11.90;;;8.23;;
23642;SDS011;11998;55.788;37.572;2023-03-19T04:55:05;16.57;;;8.30;;
23642;SDS011;11998;55.788;37.572;2023-03-19T04:56:06;14.43;;;8.48;;
23642;SDS011;11998;55.788;37.572;2023-03-19T04:57:07;15.50;;;8.47;;
23642;SDS011;11998;55.788;37.572;2023-03-19T04:58:08;14.83;;;8.77;;
23642;SDS011;11998;55.788;37.572;2023-03-19T04:59:10;14.95;;;8.38;;
23642;SDS011;11998;55.788;37.572;2023-03-19T05:00:10;14.37;;;8.87;;
23642;SDS011;11998;55.788;37.572;2023-03-19T05:01:11;12.33;;;8.33;;
23642;SDS011;11998;55.788;37.572;2023-03-19T05:02:11;19.80;;;8.60;;
23642;SDS011;11998;55.788;37.572;2023-03-19T05:03:14;13.77;;;8.00;;
23642;SDS011;11998;55.788;37.572;2023-03-19T05:04:15;12.75;;;7.40;;
23642;SDS011;11998;55.788;37.572;2023-03-19T05:05:16;11.82;;;7.65;;
23642;SDS011;11998;55.788;37.572;2023-03-19T05:06:17;11.43;;;7.33;;
23642;SDS011;11998;55.788;37.572;2023-03-19T05:07:19;17.02;;;8.65;;
23642;SDS011;11998;55.788;37.572;2023-03-19T05:08:19;12.67;;;7.67;;
23642;SDS011;11998;55.788;37.572;2023-03-19T05:09:20;14.67;;;8.03;;
23642;SDS011;11998;55.788;37.572;2023-03-19T05:10:20;11.27;;;6.73;;
23642;SDS011;11998;55.788;37.572;2023-03-19T05:11:20;11.10;;;6.90;;
23642;SDS011;11998;55.788;37.572;2023-03-19T05:12:21;13.97;;;8.03;;
23642;SDS011;11998;55.788;37.572;2023-03-19T05:13:21;16.63;;;8.00;;
23642;SDS011;11998;55.788;37.572;2023-03-19T05:14:21;13.07;;;7.27;;
23642;SDS011;11998;55.788;37.572;2023-03-19T05:15:22;14.40;;;8.93;;
23642;SDS011;11998;55.788;37.572;2023-03-19T05:16:22;13.70;;;7.73;;
23642;SDS011;11998;55.788;37.572;2023-03-19T05:17:23;13.80;;;7.90;;
23642;SDS011;11998;55.788;37.572;2023-03-19T05:18:23;12.93;;;6.57;;
23642;SDS011;11998;55.788;37.572;2023-03-19T05:19:24;14.43;;;7.23;;
23642;SDS011;11998;55.788;37.572;2023-03-19T05:20:24;14.17;;;6.67;;
23642;SDS011;11998;55.788;37.572;2023-03-19T05:21:24;10.47;;;6.60;;
23642;SDS011;11998;55.788;37.572;2023-03-19T05:22:25;13.83;;;6.77;;
23642;SDS011;11998;55.788;37.572;2023-03-19T05:23:27;10.47;;;6.30;;
23642;SDS011;11998;55.788;37.572;2023-03-19T05:24:27;13.10;;;6.43;;
23642;SDS011;11998;55.788;37.572;2023-03-19T05:25:27;12.00;;;6.43;;
23642;SDS011;11998;55.788;37.572;2023-03-19T05:26:29;15.13;;;6.50;;
23642;SDS011;11998;55.788;37.572;2023-03-19T05:27:30;8.50;;;5.93;;
23642;SDS011;11998;55.788;37.572;2023-03-19T05:28:30;10.70;;;5.67;;
23642;SDS011;11998;55.788;37.572;2023-03-19T05:29:30;11.43;;;6.27;;
23642;SDS011;11998;55.788;37.572;2023-03-19T05:30:31;10.33;;;5.97;;
23642;SDS011;11998;55.788;37.572;2023-03-19T05:31:32;12.13;;;5.60;;
23642;SDS011;11998;55.788;37.572;2023-03-19T05:32:32;13.97;;;6.43;;
23642;SDS011;11998;55.788;37.572;2023-03-19T05:33:32;8.23;;;5.03;;
23642;SDS011;11998;55.788;37.572;2023-03-19T05:34:33;8.10;;;5.40;;
23642;SDS011;11998;55.788;37.572;2023-03-19T05:35:33;8.93;;;5.20;;
23642;SDS011;11998;55.788;37.572;2023-03-19T05:36:34;13.77;;;5.83;;
23642;SDS011;11998;55.788;37.572;2023-03-19T05:37:34;9.80;;;5.50;;
23642;SDS011;11998;55.788;37.572;2023-03-19T05:38:35;9.60;;;5.57;;
23642;SDS011;11998;55.788;37.572;2023-03-19T05:39:36;10.37;;;5.63;;
23642;SDS011;11998;55.788;37.572;2023-03-19T05:40:36;7.53;;;5.20;;
23642;SDS011;11998;55.788;37.572;2023-03-19T05:41:36;7.67;;;5.83;;
23642;SDS011;11998;55.788;37.572;2023-03-19T05:42:37;11.20;;;5.53;;
23642;SDS011;11998;55.788;37.572;2023-03-19T05:43:37;7.57;;;5.40;;
23642;SDS011;11998;55.788;37.572;2023-03-19T05:44:38;8.23;;;5.87;;
23642;SDS011;11998;55.788;37.572;2023-03-19T05:45:38;7.47;;;5.23;;
23642;SDS011;11998;55.788;37.572;2023-03-19T05:46:39;11.40;;;6.07;;
23642;SDS011;11998;55.788;37.572;2023-03-19T05:47:40;7.47;;;5.27;;
23642;SDS011;11998;55.788;37.572;2023-03-19T05:48:41;7.53;;;5.13;;
23642;SDS011;11998;55.788;37.572;2023-03-19T05:49:41;8.90;;;5.28;;
23642;SDS011;11998;55.788;37.572;2023-03-19T05:50:41;10.68;;;5.82;;
23642;SDS011;11998;55.788;37.572;2023-03-19T05:51:42;7.30;;;5.28;;
23642;SDS011;11998;55.788;37.572;2023-03-19T05:52:42;8.57;;;5.40;;
23642;SDS011;11998;55.788;37.572;2023-03-19T05:53:43;11.93;;;5.55;;
23642;SDS011;11998;55.788;37.572;2023-03-19T05:54:43;7.78;;;5.18;;
23642;SDS011;11998;55.788;37.572;2023-03-19T05:55:43;9.23;;;5.20;;
23642;SDS011;11998;55.788;37.572;2023-03-19T05:56:44;8.35;;;5.50;;
23642;SDS011;11998;55.788;37.572;2023-03-19T05:57:44;11.95;;;4.82;;
23642;SDS011;11998;55.788;37.572;2023-03-19T05:58:45;9.57;;;4.95;;
23642;SDS011;11998;55.788;37.572;2023-03-19T05:59:45;10.65;;;5.15;;
23642;SDS011;11998;55.788;37.572;2023-03-19T06:00:45;9.80;;;5.70;;
23642;SDS011;11998;55.788;37.572;2023-03-19T06:01:47;8.38;;;4.75;;
23642;SDS011;11998;55.788;37.572;2023-03-19T06:02:47;7.38;;;4.90;;